Search for airport 
image banner adimage banner adimage banner ad
image banner ad

18PA - Slack

Located in Forest Grove, United States

ICAO - 18PA, IATA -

Data provided by Airmate  

General information

Coordinates: N40°17'37" W75°3'53"
Elevation is 275 feet MSL.
Magnetic variation is -12° East
View others Airports in Pennsylvania

Operational data

Special qualification required
Current time UTC:
Current local time:
Weather at : KDYL - Doylestown ( 7 km )
METAR: KDYL 091554Z AUTO 22007KT 10SM FEW110 14/04 A3007 RMK AO2 SLP184 T01390039
View NOTAMs / SUP AIP / TFR affecting this airport [VIEW]
Communications frequencies: [VIEW]

Runways:

RWY identifierQFULength (ft)Width (ft)SurfaceLDA (ft)
141850100GRASS
321850100GRASS

Airport contact information

Address: Forest Grove United States

Satellite view of 18PA